createdAt,value
2022-09-21T00:01:45.663Z,8.45
2022-09-21T00:04:14.668Z,8.46
2022-09-21T00:06:43.446Z,8.53
2022-09-21T00:09:12.319Z,8.80
2022-09-21T00:11:41.205Z,8.72
2022-09-21T00:14:12.758Z,8.83
2022-09-21T00:16:43.004Z,8.92
2022-09-21T00:19:13.501Z,9.13
2022-09-21T00:21:42.282Z,9.07
2022-09-21T00:24:11.151Z,8.58
2022-09-21T00:26:39.989Z,8.03
2022-09-21T00:29:08.751Z,7.97
2022-09-21T00:31:37.658Z,8.02
2022-09-21T00:34:07.869Z,8.43
2022-09-21T00:36:38.222Z,8.52
2022-09-21T00:39:07.145Z,8.58
2022-09-21T00:41:36.266Z,8.80
2022-09-21T00:44:30.163Z,8.80
2022-09-21T00:47:04.372Z,8.73
2022-09-21T00:49:35.936Z,7.50
2022-09-21T00:52:08.497Z,7.62
2022-09-21T00:54:44.372Z,7.98
2022-09-21T00:57:15.583Z,8.27
2022-09-21T00:59:46.447Z,8.38
2022-09-21T01:02:15.912Z,8.44
2022-09-21T01:04:45.340Z,8.11
2022-09-21T01:07:19.327Z,8.04
2022-09-21T01:09:51.300Z,8.01
2022-09-21T01:12:33.472Z,8.16
2022-09-21T01:15:19.632Z,8.11
2022-09-21T01:17:57.061Z,7.86
2022-09-21T01:20:55.123Z,7.86
2022-09-21T01:23:43.099Z,8.04
2022-09-21T01:26:22.541Z,7.93
2022-09-21T01:29:14.783Z,8.07
2022-09-21T01:31:50.486Z,8.10
2022-09-21T01:34:29.473Z,8.01
2022-09-21T01:37:03.025Z,8.10
2022-09-21T01:39:34.984Z,8.05
2022-09-21T01:42:07.635Z,8.22
2022-09-21T01:44:40.460Z,7.93
2022-09-21T01:47:14.148Z,7.49
2022-09-21T01:49:47.548Z,7.65
2022-09-21T01:52:19.721Z,7.95
2022-09-21T01:54:53.152Z,8.12
2022-09-21T01:57:29.116Z,8.12
2022-09-21T02:00:01.498Z,8.24
2022-09-21T02:02:45.632Z,8.14
2022-09-21T02:05:17.360Z,7.86
2022-09-21T02:07:48.164Z,7.76
2022-09-21T02:10:22.583Z,7.91
2022-09-21T02:13:00.053Z,7.84
2022-09-21T02:15:38.707Z,7.87
2022-09-21T02:18:15.139Z,7.97
2022-09-21T02:20:54.479Z,7.93
2022-09-21T02:23:27.700Z,7.93
2022-09-21T02:26:04.631Z,7.83
2022-09-21T02:28:44.724Z,7.82
2022-09-21T02:31:25.964Z,7.79
2022-09-21T02:34:00.801Z,8.01
2022-09-21T02:36:35.657Z,7.95
2022-09-21T02:39:10.078Z,7.98
2022-09-21T02:41:45.328Z,7.99
2022-09-21T02:44:20.837Z,7.77
2022-09-21T02:46:55.332Z,7.82
2022-09-21T02:49:29.407Z,7.80
2022-09-21T02:52:01.613Z,7.86
2022-09-21T02:54:34.075Z,7.67
2022-09-21T02:57:04.234Z,7.90
2022-09-21T02:59:33.292Z,7.92
2022-09-21T03:02:04.007Z,8.10
2022-09-21T03:04:32.994Z,8.04
2022-09-21T03:07:01.767Z,7.94
2022-09-21T03:09:30.527Z,8.04
2022-09-21T03:11:59.341Z,8.06
2022-09-21T03:14:28.189Z,8.04
2022-09-21T03:16:57.099Z,8.16
2022-09-21T03:19:28.537Z,7.95
2022-09-21T03:21:57.322Z,7.95
2022-09-21T03:24:52.070Z,8.06
2022-09-21T03:27:24.195Z,8.09
2022-09-21T03:29:53.255Z,7.88
2022-09-21T03:32:22.124Z,7.60
2022-09-21T03:34:52.272Z,7.67
2022-09-21T03:37:21.080Z,7.81
2022-09-21T03:39:49.813Z,7.76
2022-09-21T03:42:18.793Z,7.50
2022-09-21T03:44:47.556Z,7.03
2022-09-21T03:47:16.429Z,7.04
2022-09-21T03:49:45.176Z,7.19
2022-09-21T03:52:15.327Z,7.17
2022-09-21T03:54:44.081Z,7.48
2022-09-21T03:57:12.943Z,7.38
2022-09-21T03:59:42.429Z,7.37
2022-09-21T04:02:11.496Z,7.06
2022-09-21T04:04:40.247Z,7.33
2022-09-21T04:07:09.126Z,7.16
2022-09-21T04:09:39.457Z,7.06
2022-09-21T04:12:08.356Z,7.19
2022-09-21T04:14:37.109Z,7.46
2022-09-21T04:17:06.133Z,7.66
2022-09-21T04:19:34.919Z,7.78
2022-09-21T04:22:03.848Z,7.72
2022-09-21T04:24:32.631Z,7.13
2022-09-21T04:27:02.857Z,7.43
2022-09-21T04:29:31.636Z,7.63
2022-09-21T04:32:00.473Z,7.72
2022-09-21T04:34:29.226Z,7.91
2022-09-21T04:36:58.375Z,8.04
2022-09-21T04:39:27.589Z,8.05
2022-09-21T04:41:56.952Z,8.35
2022-09-21T06:12:30.427Z,10.02
2022-09-21T06:14:59.317Z,9.93
2022-09-21T06:17:28.119Z,10.20
2022-09-21T06:19:56.980Z,10.25
2022-09-21T06:22:25.810Z,10.43
2022-09-21T06:24:54.564Z,10.52
2022-09-21T06:27:23.455Z,10.67
2022-09-21T06:29:54.079Z,10.13
2022-09-21T06:32:22.814Z,10.47
2022-09-21T06:34:51.644Z,10.44
2022-09-21T06:37:20.467Z,10.39
2022-09-21T06:39:49.211Z,9.90
2022-09-21T06:42:17.987Z,10.14
2022-09-21T06:44:46.831Z,10.41
2022-09-21T06:47:16.992Z,10.23
2022-09-21T06:49:45.899Z,10.54
2022-09-21T06:52:14.704Z,11.23
2022-09-21T06:54:43.542Z,10.83
2022-09-21T06:57:12.299Z,10.53
2022-09-21T06:59:41.113Z,11.01
2022-09-21T07:02:12.883Z,10.56
2022-09-21T07:04:44.165Z,10.54
2022-09-21T07:07:12.926Z,11.47
2022-09-21T07:12:32.426Z,11.89
2022-09-21T07:15:01.515Z,12.02
2022-09-21T07:17:33.129Z,11.95
2022-09-21T07:20:04.894Z,12.17
2022-09-21T07:22:34.007Z,12.45
2022-09-21T07:25:02.884Z,11.48
2022-09-21T07:27:33.124Z,11.35
2022-09-21T07:30:02.071Z,11.80
2022-09-21T07:32:32.095Z,11.55
2022-09-21T07:35:00.958Z,12.06
2022-09-21T07:37:32.938Z,12.56
2022-09-21T07:40:05.338Z,13.28
2022-09-21T07:42:34.001Z,12.24
2022-09-21T07:45:04.672Z,12.65
2022-09-21T07:47:36.666Z,12.10
2022-09-21T07:50:05.985Z,13.24
2022-09-21T07:52:36.263Z,13.68
2022-09-21T07:55:05.593Z,14.37
2022-09-21T07:57:51.784Z,14.96
2022-09-21T08:00:20.783Z,14.37
2022-09-21T08:02:49.642Z,14.47
2022-09-21T08:05:19.641Z,15.20
2022-09-21T08:07:49.754Z,15.32
2022-09-21T08:10:18.650Z,15.37
2022-09-21T08:12:47.433Z,15.38
2022-09-21T08:15:43.887Z,15.03
2022-09-21T08:18:08.631Z,15.15
2022-09-21T08:20:37.491Z,15.35
2022-09-21T08:23:07.658Z,15.78
2022-09-21T08:25:36.415Z,16.08
2022-09-21T08:28:09.591Z,16.56
2022-09-21T08:30:38.797Z,16.68
2022-09-21T08:33:08.311Z,16.66
2022-09-21T08:35:37.421Z,16.71
2022-09-21T08:38:07.985Z,16.15
2022-09-21T08:40:36.923Z,16.14
2022-09-21T08:43:12.983Z,16.33
2022-09-21T08:45:45.288Z,16.62
2022-09-21T08:48:24.040Z,16.64
2022-09-21T08:50:59.501Z,17.31
2022-09-21T08:53:34.535Z,16.59
2022-09-21T08:56:04.072Z,16.67
2022-09-21T08:58:34.298Z,16.59
2022-09-21T09:01:22.797Z,17.12
2022-09-21T09:04:27.564Z,16.87
2022-09-21T09:07:10.925Z,16.94
2022-09-21T09:09:50.118Z,16.48
2022-09-21T09:12:39.141Z,16.46
2022-09-21T09:15:27.295Z,16.76
2022-09-21T09:18:02.960Z,17.09
2022-09-21T09:20:36.390Z,17.13
2022-09-21T09:23:11.401Z,16.29
2022-09-21T09:25:44.101Z,15.98
2022-09-21T09:28:28.384Z,15.72
2022-09-21T09:31:02.535Z,15.73
2022-09-21T09:33:44.896Z,15.64
2022-09-21T09:36:14.603Z,16.18
2022-09-21T09:38:48.297Z,16.62
2022-09-21T09:41:45.187Z,16.92
2022-09-21T09:44:28.124Z,17.02
2022-09-21T09:47:06.511Z,17.00
2022-09-21T09:49:43.415Z,17.27
2022-09-21T09:52:14.985Z,16.47
2022-09-21T09:54:44.755Z,16.86
2022-09-21T09:57:15.640Z,16.74
2022-09-21T09:59:54.185Z,16.80
2022-09-21T10:02:25.344Z,17.42
2022-09-21T10:05:03.735Z,17.80
2022-09-21T10:07:40.280Z,18.24
2022-09-21T10:10:35.412Z,17.80
2022-09-21T10:13:12.722Z,17.85
2022-09-21T10:15:49.945Z,18.08
2022-09-21T10:18:22.684Z,18.07
2022-09-21T10:20:57.652Z,18.29
2022-09-21T10:23:27.928Z,18.05
2022-09-21T10:26:01.392Z,18.51
2022-09-21T10:28:32.592Z,18.89
2022-09-21T10:31:13.630Z,19.03
2022-09-21T10:33:51.118Z,19.08
2022-09-21T10:36:33.960Z,18.48
2022-09-21T10:39:24.373Z,18.43
2022-09-21T10:41:57.789Z,19.35
2022-09-21T10:44:38.784Z,20.54
2022-09-21T10:47:19.599Z,19.87
2022-09-21T10:49:51.456Z,19.99
2022-09-21T10:52:23.500Z,19.94
2022-09-21T10:54:56.674Z,20.14
2022-09-21T10:57:29.143Z,21.18
2022-09-21T10:59:59.824Z,21.25
2022-09-21T11:02:39.126Z,22.67
2022-09-21T11:05:14.960Z,23.22
2022-09-21T11:07:51.024Z,23.01
2022-09-21T11:10:25.543Z,24.06
2022-09-21T11:13:06.724Z,22.59
2022-09-21T11:15:46.908Z,21.02
2022-09-21T11:18:23.371Z,21.62
2022-09-21T11:20:56.352Z,22.17
2022-09-21T11:23:41.394Z,19.07
2022-09-21T11:26:16.790Z,18.32
2022-09-21T11:28:50.947Z,18.07
2022-09-21T11:31:54.105Z,17.33
2022-09-21T11:34:57.430Z,18.66
2022-09-21T11:37:47.806Z,19.95
2022-09-21T11:40:31.969Z,20.25
2022-09-21T11:43:16.251Z,20.51
2022-09-21T11:45:57.612Z,20.34
2022-09-21T11:48:43.733Z,19.58
2022-09-21T11:51:38.097Z,18.82
2022-09-21T11:54:37.116Z,19.77
2022-09-21T11:57:18.935Z,19.34
2022-09-21T12:00:05.425Z,18.52
2022-09-21T12:05:33.089Z,18.23
2022-09-21T12:08:28.301Z,18.83
2022-09-21T12:11:07.371Z,18.76
2022-09-21T12:13:43.275Z,18.71
2022-09-21T12:16:16.916Z,18.61
2022-09-21T12:18:52.766Z,18.14
2022-09-21T12:21:25.814Z,18.73
2022-09-21T12:23:57.622Z,18.51
2022-09-21T12:26:33.146Z,18.73
2022-09-21T12:29:04.585Z,18.83
2022-09-21T12:31:43.961Z,18.99
2022-09-21T12:34:18.256Z,20.04
2022-09-21T12:36:59.743Z,19.80
2022-09-21T12:39:32.580Z,19.37
2022-09-21T12:42:07.681Z,17.69
2022-09-21T12:44:52.319Z,17.28
2022-09-21T12:47:25.524Z,16.78
2022-09-21T12:50:00.858Z,16.86
2022-09-21T12:52:33.169Z,17.29
2022-09-21T12:55:10.362Z,18.00
2022-09-21T12:58:14.472Z,17.75
2022-09-21T13:00:50.692Z,17.69
2022-09-21T13:03:27.085Z,17.36
2022-09-21T13:06:16.650Z,16.90
2022-09-21T13:11:24.270Z,17.62
2022-09-21T13:13:59.470Z,18.18
2022-09-21T13:16:32.620Z,18.81
2022-09-21T13:19:04.719Z,18.33
2022-09-21T13:21:34.772Z,17.81
2022-09-21T13:24:06.956Z,17.13
2022-09-21T13:26:39.653Z,16.98
2022-09-21T13:29:40.671Z,17.67
2022-09-21T13:32:24.819Z,18.64
2022-09-21T13:34:53.817Z,19.70
2022-09-21T13:37:31.646Z,19.92
2022-09-21T13:40:40.980Z,17.80
2022-09-21T13:43:48.287Z,18.12
2022-09-21T13:46:54.621Z,18.73
2022-09-21T13:49:40.875Z,18.79
2022-09-21T13:52:32.090Z,18.63
2022-09-21T13:55:04.260Z,17.99
2022-09-21T13:57:39.115Z,18.60
2022-09-21T14:00:36.262Z,18.01
2022-09-21T14:03:17.774Z,17.72
2022-09-21T14:05:49.378Z,18.33
2022-09-21T14:08:31.410Z,19.48
2022-09-21T14:11:03.306Z,19.94
2022-09-21T14:13:36.041Z,20.15
2022-09-21T14:16:51.310Z,20.54
2022-09-21T14:20:09.528Z,19.92
2022-09-21T14:22:43.748Z,18.29
2022-09-21T14:25:48.960Z,18.66
2022-09-21T14:28:19.825Z,19.34
2022-09-21T14:30:57.566Z,19.28
2022-09-21T14:33:35.347Z,19.46
2022-09-21T14:36:09.978Z,19.71
2022-09-21T14:38:51.830Z,18.04
2022-09-21T14:41:24.957Z,18.07
2022-09-21T14:43:56.644Z,17.69
2022-09-21T14:46:51.519Z,17.04
2022-09-21T14:49:43.891Z,16.45
2022-09-21T14:52:32.189Z,16.40
2022-09-21T14:55:17.341Z,16.06
2022-09-21T14:58:07.694Z,16.03
2022-09-21T15:00:42.931Z,15.86
2022-09-21T15:03:22.292Z,15.76
2022-09-21T15:05:57.876Z,16.16
2022-09-21T15:09:06.000Z,16.15
2022-09-21T15:11:43.408Z,16.44
2022-09-21T15:14:21.825Z,16.42
2022-09-21T15:16:52.382Z,15.98
2022-09-21T15:19:27.270Z,16.53
2022-09-21T15:22:11.215Z,17.01
2022-09-21T15:24:50.948Z,17.56
2022-09-21T15:27:22.898Z,17.58
2022-09-21T15:29:54.693Z,17.98
2022-09-21T15:32:31.575Z,17.67
2022-09-21T15:35:02.248Z,16.47
2022-09-21T15:37:36.730Z,16.29
2022-09-21T15:40:08.623Z,16.13
2022-09-21T15:42:46.867Z,15.37
2022-09-21T15:45:17.898Z,15.78
2022-09-21T15:47:46.900Z,15.32
2022-09-21T15:50:17.387Z,15.21
2022-09-21T15:52:52.357Z,14.96
2022-09-21T15:55:23.253Z,14.85
2022-09-21T15:57:56.267Z,14.91
2022-09-21T16:00:27.164Z,14.56
2022-09-21T16:03:04.586Z,14.27
2022-09-21T16:05:44.338Z,13.79
2022-09-21T16:08:33.165Z,13.62
2022-09-21T16:11:20.047Z,13.36
2022-09-21T16:14:06.621Z,13.36
2022-09-21T16:17:20.195Z,13.09
2022-09-21T16:20:19.673Z,12.83
2022-09-21T16:22:50.989Z,13.10
2022-09-21T16:25:39.214Z,13.04
2022-09-21T16:28:29.444Z,13.33
2022-09-21T16:30:59.355Z,13.28
2022-09-21T16:33:43.960Z,13.43
2022-09-21T16:36:44.817Z,13.73
2022-09-21T16:39:16.499Z,13.67
2022-09-21T16:41:51.969Z,13.59
2022-09-21T16:44:22.897Z,13.48
2022-09-21T16:47:00.631Z,13.71
2022-09-21T16:49:35.138Z,13.62
2022-09-21T16:52:04.372Z,13.10
2022-09-21T16:54:33.215Z,13.24
2022-09-21T16:57:06.320Z,13.63
2022-09-21T16:59:36.610Z,13.75
2022-09-21T17:02:06.058Z,13.72
2022-09-21T17:04:36.126Z,13.30
2022-09-21T17:07:06.177Z,13.59
2022-09-21T17:09:38.259Z,13.89
2022-09-21T17:12:11.105Z,14.00
2022-09-21T17:14:46.406Z,13.76
2022-09-21T17:17:19.295Z,13.87
2022-09-21T17:19:49.928Z,13.94
2022-09-21T17:22:19.847Z,13.77
2022-09-21T17:24:52.290Z,13.80
2022-09-21T17:27:24.504Z,13.78
2022-09-21T17:29:55.319Z,13.71
2022-09-21T17:32:25.385Z,13.48
2022-09-21T17:34:58.721Z,13.36
2022-09-21T17:37:33.990Z,13.51
2022-09-21T17:40:08.313Z,13.71
2022-09-21T17:42:46.386Z,13.72
2022-09-21T17:45:21.848Z,13.79
2022-09-21T17:47:51.283Z,13.88
2022-09-21T17:50:24.198Z,13.95
2022-09-21T17:53:11.759Z,14.06
2022-09-21T17:55:45.653Z,13.92
2022-09-21T17:58:42.862Z,13.68
2022-09-21T18:01:21.975Z,13.25
2022-09-21T18:03:51.291Z,12.83
2022-09-21T18:06:20.560Z,13.07
2022-09-21T18:08:50.458Z,13.21
2022-09-21T18:11:45.035Z,13.01
2022-09-21T18:14:22.214Z,13.16
2022-09-21T18:17:02.472Z,13.21
2022-09-21T18:19:42.609Z,12.63
2022-09-21T18:22:19.315Z,13.10
2022-09-21T18:24:48.708Z,13.13
2022-09-21T18:27:20.168Z,13.27
2022-09-21T18:29:51.468Z,13.05
2022-09-21T18:32:50.412Z,13.05
2022-09-21T18:35:48.236Z,13.17
2022-09-21T18:38:25.010Z,13.31
2022-09-21T18:41:06.204Z,13.20
2022-09-21T18:43:46.127Z,13.27
2022-09-21T18:46:20.813Z,12.53
2022-09-21T18:48:57.325Z,12.70
2022-09-21T18:51:35.611Z,12.64
2022-09-21T18:54:04.727Z,12.17
2022-09-21T18:56:37.015Z,12.66
2022-09-21T18:59:07.170Z,12.65
2022-09-21T19:01:38.176Z,12.92
2022-09-21T19:04:08.011Z,12.65
2022-09-21T19:06:45.383Z,12.36
2022-09-21T19:09:33.936Z,12.57
2022-09-21T19:12:12.994Z,12.64
2022-09-21T19:14:53.167Z,12.78
2022-09-21T19:17:38.742Z,12.60
2022-09-21T19:20:25.582Z,12.62
2022-09-21T19:23:02.886Z,12.74
2022-09-21T19:25:40.712Z,13.00
2022-09-21T19:28:29.200Z,13.04
2022-09-21T19:31:03.299Z,12.42
2022-09-21T19:33:51.178Z,11.21
2022-09-21T19:36:20.733Z,11.06
2022-09-21T19:38:49.891Z,11.19
2022-09-21T19:41:36.107Z,11.82
2022-09-21T19:44:19.833Z,12.08
2022-09-21T19:46:59.886Z,11.77
2022-09-21T19:49:42.685Z,11.87
2022-09-21T19:52:15.531Z,11.76
2022-09-21T19:55:02.880Z,11.59
2022-09-21T19:57:49.965Z,11.94
2022-09-21T20:00:19.727Z,12.21
2022-09-21T20:03:01.055Z,12.22
2022-09-21T20:05:50.785Z,11.96
2022-09-21T20:08:25.925Z,11.83
2022-09-21T20:11:07.149Z,11.73
2022-09-21T20:14:07.249Z,11.38
2022-09-21T20:16:46.953Z,11.26
2022-09-21T20:19:28.339Z,11.64
2022-09-21T20:22:04.923Z,11.75
2022-09-21T20:24:40.931Z,11.40
2022-09-21T20:27:21.498Z,11.73
2022-09-21T20:29:50.482Z,11.77
2022-09-21T20:32:19.420Z,11.95
2022-09-21T20:34:50.262Z,11.96
2022-09-21T20:37:22.411Z,12.14
2022-09-21T20:39:51.212Z,11.85
2022-09-21T20:42:23.478Z,12.12
2022-09-21T20:44:52.626Z,11.54
2022-09-21T20:47:22.156Z,11.60
2022-09-21T20:49:51.190Z,11.29
2022-09-21T20:52:21.378Z,10.91
2022-09-21T20:54:50.652Z,10.49
2022-09-21T20:57:20.377Z,10.33
2022-09-21T20:59:49.359Z,10.60
2022-09-21T21:02:18.138Z,11.12
2022-09-21T21:04:46.995Z,11.19
2022-09-21T21:07:15.764Z,11.25
2022-09-21T21:09:46.036Z,11.56
2022-09-21T21:12:16.693Z,11.88
2022-09-21T21:14:46.023Z,12.00
2022-09-21T21:17:15.275Z,12.01
2022-09-21T21:19:44.582Z,11.61
2022-09-21T21:22:14.556Z,11.75
2022-09-21T21:24:44.105Z,11.72
2022-09-21T21:27:17.367Z,11.88
2022-09-21T21:29:47.263Z,12.11
2022-09-21T21:32:16.765Z,12.22
2022-09-21T21:34:46.014Z,12.27
2022-09-21T21:37:16.476Z,12.06
2022-09-21T21:39:45.684Z,11.86
2022-09-21T21:42:16.324Z,11.38
2022-09-21T21:44:46.540Z,11.58
2022-09-21T21:47:38.342Z,11.86
2022-09-21T21:50:04.875Z,12.06
2022-09-21T21:52:33.637Z,12.20
2022-09-21T21:55:02.579Z,12.14
2022-09-21T21:57:32.814Z,12.11
2022-09-21T22:00:01.676Z,11.88
2022-09-21T22:02:33.470Z,11.76
2022-09-21T22:05:02.310Z,11.70
2022-09-21T22:07:31.072Z,11.72
2022-09-21T22:09:59.805Z,11.21
2022-09-21T22:12:28.543Z,11.22
2022-09-21T22:14:58.667Z,11.32
2022-09-21T22:17:27.397Z,11.44
2022-09-21T22:19:56.382Z,11.33
2022-09-21T22:22:25.472Z,11.31
2022-09-21T22:24:54.256Z,11.25
2022-09-21T22:27:23.153Z,11.13
2022-09-21T22:29:52.022Z,11.21
2022-09-21T22:32:22.697Z,11.10
2022-09-21T22:34:51.513Z,10.75
2022-09-21T22:37:20.283Z,10.98
2022-09-21T22:39:49.012Z,10.81
2022-09-21T22:42:17.810Z,10.63
2022-09-21T22:44:46.557Z,10.47
2022-09-21T22:47:15.303Z,9.08
2022-09-21T22:49:45.502Z,8.98
2022-09-21T22:52:14.519Z,9.04
2022-09-21T22:54:43.270Z,9.76
2022-09-21T22:57:12.004Z,9.85
2022-09-21T22:59:40.987Z,9.77
2022-09-21T23:02:11.584Z,9.89
2022-09-21T23:04:40.469Z,9.74
2022-09-21T23:07:10.583Z,10.03
2022-09-21T23:09:39.365Z,9.84
2022-09-21T23:12:08.300Z,10.39
2022-09-21T23:14:37.102Z,10.53
2022-09-21T23:17:05.936Z,10.55
2022-09-21T23:19:35.378Z,10.29
2022-09-21T23:22:04.148Z,9.90
2022-09-21T23:24:34.475Z,9.75
2022-09-21T23:27:03.368Z,10.01
2022-09-21T23:29:32.224Z,10.28
2022-09-21T23:32:01.044Z,10.47
2022-09-21T23:34:29.865Z,10.65
2022-09-21T23:36:58.740Z,10.72
2022-09-21T23:39:27.525Z,10.54
2022-09-21T23:41:57.667Z,10.72
2022-09-21T23:44:26.449Z,10.72
2022-09-21T23:46:55.280Z,10.68
2022-09-21T23:49:24.059Z,10.49
2022-09-21T23:51:52.996Z,10.53
2022-09-21T23:54:22.002Z,10.65
2022-09-21T23:56:50.735Z,9.98
2022-09-21T23:59:20.902Z,10.33
